Time;durP1;ratioP1;P1;durP2;ratioP2;P2;SDS_P1;SDS_P2;PMS_P1;PMS_P2;Temp;Humidity;BMP_temperature;BMP_pressure;BME280_temperature;BME280_humidity;BME280_pressure;Samples;Min_cycle;Max_cycle;Signal;HPM_P1;HPM_P2
2021/03/23 00:01:18;;;;;;;6.25;1.27;;;5.30;58.70;;;4.72;47.10;100909.47;4968980;28;20074;-57
2021/03/23 00:03:51;;;;;;;4.28;0.95;;;5.30;59.60;;;4.69;48.14;100901.09;4957442;28;20089;-52
2021/03/23 00:06:24;;;;;;;4.18;1.75;;;5.30;59.60;;;4.81;46.88;100903.69;4949831;29;20525;-54
2021/03/23 00:08:54;;;;;;;4.32;1.80;;;5.30;58.90;;;4.82;46.92;100907.09;4964183;28;20418;-59
2021/03/23 00:11:36;;;;;;;4.25;2.25;;;5.40;59.40;;;4.87;46.80;100908.47;4969282;28;20066;-59
2021/03/23 00:14:06;;;;;;;3.80;1.40;;;5.40;58.70;;;4.90;45.86;100913.44;4953008;28;20042;-56
2021/03/23 00:16:39;;;;;;;4.30;1.15;;;5.50;58.40;;;4.81;47.25;100921.75;4954713;28;20061;-58
2021/03/23 00:19:06;;;;;;;4.40;2.10;;;5.40;60.00;;;4.62;48.08;100919.53;4969084;28;20152;-59
2021/03/23 00:21:33;;;;;;;5.35;1.65;;;5.30;61.00;;;4.52;48.53;100926.19;4964580;28;20126;-51
2021/03/23 00:23:59;;;;;;;2.97;1.25;;;5.20;61.10;;;4.52;48.93;100927.94;4965691;28;20027;-58
2021/03/23 00:26:26;;;;;;;2.38;0.98;;;5.20;61.70;;;4.50;48.90;100934.94;4965042;28;20118;-53
2021/03/23 00:28:55;;;;;;;3.88;1.00;;;5.10;61.40;;;4.57;48.58;100933.63;4949828;29;20038;-51
2021/03/23 00:31:28;;;;;;;3.25;1.08;;;5.20;61.50;;;4.58;49.08;100932.72;4933909;28;20100;-58
2021/03/23 00:33:55;;;;;;;4.50;1.27;;;5.20;61.20;;;4.72;48.23;100939.59;4952770;28;20074;-60
2021/03/23 00:36:25;;;;;;;3.05;1.08;;;5.30;61.00;;;4.65;48.68;100936.56;4950679;28;20143;-52
2021/03/23 00:38:53;;;;;;;2.78;1.08;;;5.30;62.00;;;4.53;48.74;100935.56;4968661;28;20039;-58
2021/03/23 00:41:20;;;;;;;4.43;1.00;;;5.20;61.70;;;4.52;48.38;100943.41;4969425;28;20038;-54
2021/03/23 00:43:46;;;;;;;2.88;0.88;;;5.10;60.90;;;4.50;48.42;100943.50;4970752;28;20062;-55
2021/03/23 00:46:11;;;;;;;3.60;1.05;;;5.10;60.60;;;4.45;48.33;100944.69;4970897;28;20059;-55
2021/03/23 00:48:37;;;;;;;1.92;0.70;;;5.10;61.00;;;4.53;47.77;100937.31;4952832;28;20035;-55
2021/03/23 00:51:03;;;;;;;3.40;0.80;;;5.10;60.20;;;4.51;48.14;100946.91;4953109;29;20095;-52
2021/03/23 00:53:29;;;;;;;3.33;1.00;;;5.10;60.70;;;4.35;48.70;100949.59;4969649;28;20047;-56
2021/03/23 00:55:58;;;;;;;3.13;0.80;;;5.00;61.30;;;4.25;49.02;100956.25;4972112;28;20487;-53
2021/03/23 00:58:24;;;;;;;1.95;0.77;;;4.90;61.60;;;4.16;49.60;100956.78;4955538;28;20058;-56
2021/03/23 01:00:50;;;;;;;2.20;0.60;;;4.80;62.20;;;4.11;49.87;100964.81;4952671;29;20043;-59
2021/03/23 01:03:16;;;;;;;3.20;1.00;;;4.80;62.80;;;4.10;50.15;100967.47;4966245;28;20035;-57
2021/03/23 01:05:43;;;;;;;2.28;0.77;;;4.70;63.00;;;4.17;49.92;100974.75;4971642;28;20069;-52
2021/03/23 01:08:09;;;;;;;2.45;1.05;;;4.80;63.10;;;4.17;50.41;100973.94;4958414;28;20039;-51
2021/03/23 01:10:35;;;;;;;3.78;0.70;;;4.80;63.40;;;4.13;50.59;100978.44;4952505;29;20050;-49
2021/03/23 01:13:02;;;;;;;2.90;0.80;;;4.70;63.80;;;4.12;50.83;100986.25;4966585;28;20045;-55
2021/03/23 01:15:32;;;;;;;2.78;0.80;;;4.70;64.00;;;4.07;51.08;100985.69;4971830;28;20035;-59
2021/03/23 01:17:58;;;;;;;3.20;0.70;;;4.70;64.50;;;3.98;51.47;100989.66;4957120;28;20035;-55
2021/03/23 01:20:31;;;;;;;3.08;0.80;;;4.70;64.60;;;3.91;52.63;100990.91;4952273;29;20043;-52
2021/03/23 01:22:58;;;;;;;3.25;0.98;;;4.60;65.00;;;3.88;51.82;100993.66;4965658;28;20259;-56
2021/03/23 01:25:25;;;;;;;1.98;0.80;;;4.50;65.10;;;3.91;52.27;100993.50;4971385;28;20058;-56
2021/03/23 01:27:51;;;;;;;2.30;0.77;;;4.50;66.00;;;3.91;52.51;100990.91;4958436;28;20039;-57
2021/03/23 01:30:27;;;;;;;2.03;0.60;;;4.50;66.30;;;3.94;52.32;100999.31;4952063;29;20541;-55
2021/03/23 01:32:53;;;;;;;2.22;0.82;;;4.50;65.20;;;4.00;51.15;101003.28;4963993;28;20360;-50
2021/03/23 01:35:23;;;;;;;3.15;0.88;;;4.60;64.40;;;4.07;50.52;100996.84;4971150;28;20027;-61
2021/03/23 01:37:49;;;;;;;3.25;1.00;;;4.60;63.90;;;4.25;50.30;100997.53;4959502;28;20071;-54
2021/03/23 01:40:20;;;;;;;4.40;0.90;;;4.70;64.10;;;4.16;50.52;100993.72;4951850;29;20028;-55
2021/03/23 01:42:56;;;;;;;4.25;1.45;;;4.80;63.80;;;4.15;51.24;100994.66;4961997;28;20043;-48
2021/03/23 01:45:44;;;;;;;2.25;0.85;;;4.70;63.90;;;4.16;50.20;100998.88;4971087;28;20542;-56
2021/03/23 01:48:19;;;;;;;2.42;0.77;;;4.80;63.60;;;4.12;51.40;100994.81;4957084;28;20519;-53
2021/03/23 01:51:02;;;;;;;2.20;0.90;;;4.70;63.30;;;4.02;51.69;101001.44;4951705;28;20433;-56
2021/03/23 01:53:43;;;;;;;2.97;0.80;;;4.70;64.00;;;4.13;51.26;101004.22;4966254;28;20282;-54
2021/03/23 01:56:12;;;;;;;2.65;0.80;;;4.70;63.80;;;4.03;50.92;100997.94;4969779;28;20034;-55
2021/03/23 01:58:43;;;;;;;2.38;0.77;;;4.70;64.60;;;4.03;50.96;101008.25;4953289;28;20057;-54
2021/03/23 02:01:14;;;;;;;3.80;1.05;;;4.60;64.30;;;3.97;51.60;101004.28;4951529;29;20357;-57
2021/03/23 02:03:41;;;;;;;4.20;1.13;;;4.60;65.30;;;3.93;51.72;100999.41;4966748;28;20058;-60
2021/03/23 02:06:27;;;;;;;3.63;1.42;;;4.50;65.80;;;3.91;52.80;101009.78;4970970;28;20034;-59
2021/03/23 02:08:56;;;;;;;4.05;1.10;;;4.50;65.30;;;3.91;52.12;101007.22;4968044;28;20046;-59
2021/03/23 02:11:22;;;;;;;4.13;1.00;;;4.50;65.60;;;3.96;51.62;101012.09;4969448;28;20031;-58
2021/03/23 02:13:50;;;;;;;2.78;0.75;;;4.50;65.60;;;3.94;51.83;101012.19;4968569;28;20503;-54
2021/03/23 02:16:19;;;;;;;2.80;0.60;;;4.50;65.80;;;3.95;52.09;101010.44;4969406;28;20081;-55
2021/03/23 02:18:45;;;;;;;3.65;0.85;;;4.50;66.40;;;3.89;52.57;101023.69;4951581;28;20158;-52
2021/03/23 02:21:15;;;;;;;2.08;0.70;;;4.50;66.80;;;3.77;53.28;101027.00;4951046;29;20035;-60
2021/03/23 02:23:51;;;;;;;6.13;1.40;;;4.40;67.80;;;3.67;53.82;101021.53;4967113;28;20437;-51
2021/03/23 02:26:26;;;;;;;2.95;1.23;;;4.30;67.50;;;3.66;54.21;101020.69;4970334;28;20043;-55
2021/03/23 02:28:55;;;;;;;2.45;1.00;;;4.30;68.20;;;3.60;54.27;101022.78;4951519;28;20039;-52
2021/03/23 02:31:39;;;;;;;2.58;1.20;;;4.20;68.80;;;3.58;55.31;101017.72;4949262;29;20118;-58
2021/03/23 02:34:09;;;;;;;4.25;1.17;;;4.20;69.00;;;3.60;54.75;101021.03;4968831;28;20401;-54
2021/03/23 02:36:37;;;;;;;5.32;1.00;;;4.20;70.40;;;3.58;54.92;101015.13;4970368;28;20062;-55
2021/03/23 02:39:09;;;;;;;5.63;1.13;;;4.20;70.70;;;3.61;54.77;101022.69;4967871;28;20399;-58
2021/03/23 02:41:36;;;;;;;4.53;0.88;;;4.20;70.20;;;3.60;54.88;101028.75;4970206;28;20049;-50
2021/03/23 02:44:03;;;;;;;2.75;1.48;;;4.20;69.90;;;3.55;54.75;101032.50;5113610;23;20196;-57
2021/03/23 02:46:29;;;;;;;4.28;1.52;;;4.20;70.30;;;3.54;55.05;101034.25;5009048;28;20052;-51
2021/03/23 02:48:55;;;;;;;3.03;1.40;;;4.20;70.80;;;3.58;54.82;101034.91;5009133;28;20033;-55
2021/03/23 02:51:21;;;;;;;4.40;1.75;;;4.20;70.50;;;3.49;55.22;101043.16;5008937;28;20504;-51
2021/03/23 02:53:48;;;;;;;5.90;1.70;;;4.10;72.10;;;3.32;55.70;101032.03;5008839;28;20054;-56
2021/03/23 02:56:16;;;;;;;2.53;1.17;;;4.00;71.70;;;3.27;55.64;101043.53;5008744;28;20369;-50
2021/03/23 02:58:43;;;;;;;6.22;1.70;;;3.90;71.90;;;3.25;56.00;101045.34;5009176;28;20037;-54
2021/03/23 03:01:09;;;;;;;3.55;1.70;;;3.90;72.90;;;3.26;55.88;101047.03;5008923;28;20037;-54
2021/03/23 03:03:36;;;;;;;3.92;1.50;;;3.90;73.30;;;3.26;56.05;101052.16;5008580;28;20120;-60
2021/03/23 03:06:03;;;;;;;4.13;1.40;;;3.90;74.00;;;3.12;56.84;101059.81;5009014;28;20077;-60
2021/03/23 03:08:28;;;;;;;4.97;1.38;;;3.80;74.50;;;3.10;56.61;101061.63;5008618;28;20720;-60
2021/03/23 03:10:54;;;;;;;4.78;1.38;;;3.70;74.80;;;3.04;56.80;101062.78;5008591;28;20092;-56
2021/03/23 03:13:22;;;;;;;4.13;1.38;;;3.70;75.20;;;2.98;57.06;101061.38;5008866;28;20041;-56
2021/03/23 03:15:50;;;;;;;2.67;1.30;;;3.60;75.80;;;2.93;57.34;101057.38;5009057;28;20045;-54
2021/03/23 03:18:17;;;;;;;3.78;1.20;;;3.60;76.20;;;2.95;57.19;101066.66;5008604;28;20501;-52
2021/03/23 03:20:43;;;;;;;4.70;1.60;;;3.60;77.10;;;2.96;57.50;101064.94;5008422;28;20832;-59
2021/03/23 03:23:10;;;;;;;7.00;1.05;;;3.60;78.90;;;2.87;59.11;101073.97;5008529;28;20446;-57
2021/03/23 03:25:36;;;;;;;3.42;1.05;;;3.50;80.10;;;2.77;57.93;101072.81;5008753;28;20038;-55
2021/03/23 03:28:04;;;;;;;3.08;1.10;;;3.40;80.30;;;2.66;58.04;101070.78;5008970;28;20037;-51
2021/03/23 03:30:32;;;;;;;4.72;0.80;;;3.30;80.00;;;2.64;57.89;101080.31;5007024;28;20048;-51
2021/03/23 03:33:00;;;;;;;4.78;1.08;;;3.20;81.70;;;2.53;58.28;101071.47;5008638;28;20037;-52
2021/03/23 03:35:30;;;;;;;6.53;1.05;;;3.20;83.20;;;2.48;58.65;101074.28;5008390;28;20555;-57
2021/03/23 03:37:57;;;;;;;2.42;0.85;;;3.20;84.50;;;2.49;59.03;101072.56;4991247;28;20038;-56
2021/03/23 03:40:31;;;;;;;3.60;0.98;;;3.10;85.80;;;2.45;58.63;101071.03;5008372;28;20037;-58
2021/03/23 03:42:57;;;;;;;3.63;0.70;;;3.10;85.80;;;2.37;58.78;101070.59;5008391;28;20034;-54
2021/03/23 03:45:25;;;;;;;2.28;0.60;;;3.00;87.10;;;2.37;59.50;101071.44;5008048;28;20070;-57
2021/03/23 03:47:53;;;;;;;3.85;1.85;;;3.00;89.60;;;2.36;59.26;101074.09;5008618;28;20065;-58
2021/03/23 03:50:22;;;;;;;4.50;0.82;;;3.00;90.20;;;2.25;60.10;101082.34;4990790;28;20087;-52
2021/03/23 03:52:48;;;;;;;5.10;0.98;;;2.90;91.90;;;2.26;59.67;101084.00;5008576;28;20493;-55
2021/03/23 03:55:25;;;;;;;5.50;0.95;;;2.90;92.30;;;2.10;60.51;101090.81;5008315;28;20062;-56
2021/03/23 03:57:51;;;;;;;2.95;0.90;;;2.80;92.30;;;2.03;61.08;101098.00;5008247;28;20108;-58
2021/03/23 04:00:21;;;;;;;3.33;1.38;;;2.70;93.70;;;2.02;61.06;101092.91;5008161;28;20037;-60
2021/03/23 04:02:48;;;;;;;5.13;0.73;;;2.70;94.20;;;2.01;60.48;101084.38;5008192;28;20042;-52
2021/03/23 04:05:29;;;;;;;2.17;0.93;;;2.60;93.90;;;2.00;61.16;101091.25;5008270;28;20211;-51
2021/03/23 04:07:55;;;;;;;3.45;0.90;;;2.60;94.30;;;2.01;62.19;101102.38;5008411;28;20034;-52
2021/03/23 04:10:23;;;;;;;2.78;0.85;;;2.60;95.60;;;1.90;60.91;101107.19;5008006;28;20034;-53
2021/03/23 04:12:50;;;;;;;8.15;1.42;;;2.50;95.80;;;1.77;61.26;101101.00;5007972;28;20156;-59
2021/03/23 04:15:23;;;;;;;2.83;1.40;;;2.50;96.20;;;1.72;62.16;101102.94;5010322;28;20239;-55
2021/03/23 04:17:49;;;;;;;4.30;1.38;;;2.40;97.10;;;1.63;62.60;101117.06;5012084;28;20357;-55
2021/03/23 04:20:17;;;;;;;3.22;1.75;;;2.30;97.60;;;1.59;62.20;101118.94;5011936;28;20058;-59
2021/03/23 04:22:43;;;;;;;5.93;1.40;;;2.20;97.60;;;1.65;62.27;101121.22;5012010;28;20485;-57
2021/03/23 04:25:13;;;;;;;5.43;1.38;;;2.20;98.10;;;1.91;61.20;101121.69;5011747;28;20039;-58
2021/03/23 04:27:39;;;;;;;3.42;1.40;;;2.40;97.50;;;1.73;61.59;101117.47;5011424;28;20503;-52
2021/03/23 04:30:07;;;;;;;3.83;1.17;;;2.30;97.80;;;1.64;62.28;101114.41;5011409;28;20120;-55
2021/03/23 04:32:34;;;;;;;6.93;1.58;;;2.30;99.20;;;1.55;63.11;101125.09;5011541;28;20033;-51
2021/03/23 04:35:01;;;;;;;5.70;1.08;;;2.20;99.50;;;1.49;64.44;101122.00;5011442;28;20634;-53
2021/03/23 04:37:27;;;;;;;5.18;1.10;;;2.20;99.90;;;1.46;62.73;101128.09;5011518;28;20477;-57
2021/03/23 04:39:53;;;;;;;8.15;1.48;;;2.10;99.90;;;1.47;62.60;101129.75;5011508;28;20036;-58
2021/03/23 04:42:19;;;;;;;4.05;1.52;;;2.10;99.80;;;1.45;63.06;101130.72;5011759;28;20045;-56
2021/03/23 04:44:44;;;;;;;7.03;1.20;;;2.10;99.90;;;1.43;63.83;101133.38;5011311;28;20053;-60
2021/03/23 04:47:10;;;;;;;5.20;1.42;;;2.00;99.90;;;1.46;64.27;101143.50;5011450;28;20037;-57
2021/03/23 04:49:36;;;;;;;5.07;1.48;;;2.00;99.90;;;1.49;63.44;101138.22;5011195;28;20401;-59
2021/03/23 04:52:02;;;;;;;4.88;1.52;;;2.00;99.90;;;1.47;62.52;101136.63;5011237;28;20049;-60
2021/03/23 04:54:30;;;;;;;5.63;1.20;;;2.10;99.90;;;1.48;63.18;101136.56;5010679;28;20493;-60
2021/03/23 04:56:56;;;;;;;4.57;1.23;;;2.10;99.90;;;1.43;62.83;101145.38;5010600;28;20124;-56
2021/03/23 04:59:22;;;;;;;4.97;1.65;;;2.00;99.90;;;1.35;63.12;101135.47;5010875;28;20080;-58
2021/03/23 05:01:47;;;;;;;7.03;1.77;;;2.00;99.90;;;1.45;62.69;101144.41;5010935;28;20062;-50
2021/03/23 05:04:17;;;;;;;5.55;1.70;;;2.10;99.90;;;1.44;63.18;101153.00;5011165;28;20065;-56
2021/03/23 05:06:43;;;;;;;3.10;1.30;;;2.00;99.90;;;1.49;63.14;101152.81;5011308;28;20029;-57
2021/03/23 05:09:10;;;;;;;4.50;1.42;;;2.10;99.90;;;1.39;63.72;101162.69;5010575;28;20396;-57
2021/03/23 05:11:36;;;;;;;3.05;1.23;;;2.00;99.90;;;1.35;63.91;101162.88;5010805;28;20125;-57
2021/03/23 05:14:05;;;;;;;3.67;1.73;;;2.00;99.90;;;1.45;63.85;101158.97;5010809;28;20038;-56
2021/03/23 05:16:31;;;;;;;8.55;1.95;;;2.00;99.90;;;1.48;63.20;101157.09;5010873;28;20038;-52
2021/03/23 05:18:58;;;;;;;7.97;2.08;;;2.10;99.90;;;1.41;63.58;101153.19;5010634;28;20052;-51
2021/03/23 05:21:24;;;;;;;6.00;2.42;;;2.00;99.90;;;1.48;64.26;101166.53;5010819;28;20090;-54
2021/03/23 05:23:54;;;;;;;4.93;1.63;;;2.10;99.90;;;1.43;64.33;101174.47;5010497;28;20045;-54
2021/03/23 05:26:20;;;;;;;4.55;1.33;;;2.10;99.90;;;1.36;64.79;101167.97;4991848;28;20562;-54
2021/03/23 05:28:47;;;;;;;4.63;1.52;;;2.00;99.90;;;1.45;64.75;101172.66;5010738;28;20033;-53
2021/03/23 05:31:15;;;;;;;9.75;1.50;;;2.10;99.90;;;1.63;64.34;101187.25;5010530;28;20038;-54
2021/03/23 05:33:41;;;;;;;6.95;1.42;;;2.20;99.90;;;1.75;63.19;101185.84;5010646;28;20034;-55
2021/03/23 05:36:08;;;;;;;7.45;1.45;;;2.30;99.90;;;2.06;63.19;101182.66;5010273;28;20507;-53
2021/03/23 05:38:33;;;;;;;6.32;1.55;;;2.60;99.90;;;4.08;58.52;101189.34;5010413;28;20038;-55
2021/03/23 05:41:06;;;;;;;8.93;1.38;;;4.50;97.50;;;6.14;52.81;101200.22;5010126;28;20512;-55
2021/03/23 05:44:04;;;;;;;6.00;1.15;;;7.50;82.60;;;7.83;48.58;101186.09;5010394;28;20057;-53
2021/03/23 05:46:40;;;;;;;5.13;1.73;;;9.80;64.90;;;9.61;45.12;101194.28;5010028;28;20030;-56
2021/03/23 05:49:18;;;;;;;7.70;1.65;;;11.50;59.10;;;10.66;42.47;101192.75;5010272;28;20030;-51
2021/03/23 05:51:52;;;;;;;8.73;1.88;;;13.10;53.30;;;10.94;42.37;101196.47;5010234;28;20050;-55
2021/03/23 05:54:43;;;;;;;6.72;1.58;;;14.10;50.80;;;10.35;42.94;101193.63;4992905;28;20037;-55
2021/03/23 05:57:34;;;;;;;4.85;1.58;;;14.20;49.60;;;9.61;44.61;101202.09;4993349;28;20030;-57
2021/03/23 06:00:18;;;;;;;6.35;1.40;;;14.10;48.60;;;10.22;44.61;101202.44;5009778;28;20108;-53
2021/03/23 06:02:57;;;;;;;6.70;1.48;;;14.30;49.00;;;10.84;42.67;101206.03;5009856;28;20485;-55
2021/03/23 06:05:37;;;;;;;7.18;2.30;;;14.80;47.00;;;10.33;42.72;101205.97;5009922;28;20065;-52
2021/03/23 06:08:06;;;;;;;6.18;1.40;;;14.90;46.50;;;10.11;43.65;101199.84;5009772;28;20179;-52
2021/03/23 06:10:33;;;;;;;6.82;1.27;;;14.90;45.60;;;10.32;42.68;101210.34;5009838;28;20034;-56
2021/03/23 06:13:20;;;;;;;5.70;1.40;;;15.20;44.80;;;10.17;40.83;101216.75;5009518;28;20030;-54
2021/03/23 06:16:32;;;;;;;3.35;1.25;;;15.40;44.20;;;10.30;40.27;101218.28;5009267;28;20140;-54
2021/03/23 06:19:26;;;;;;;12.55;1.88;;;15.30;42.50;;;10.09;40.88;101227.78;4983317;28;20053;-50
2021/03/23 06:22:27;;;;;;;5.38;1.23;;;15.20;43.20;;;10.61;39.04;101227.00;5009608;28;20069;-56
2021/03/23 06:25:02;;;;;;;8.88;1.42;;;14.80;42.60;;;10.12;39.58;101224.94;5009620;28;20235;-58
2021/03/23 06:27:46;;;;;;;4.35;1.05;;;13.40;44.50;;;9.22;40.38;101219.03;5009270;28;20440;-56
2021/03/23 06:30:34;;;;;;;8.85;1.65;;;11.50;47.70;;;7.65;44.33;101230.56;5009260;28;20038;-55
2021/03/23 06:33:00;;;;;;;8.52;2.00;;;9.60;53.00;;;6.92;45.99;101232.19;5008973;28;20046;-59
2021/03/23 06:35:42;;;;;;;15.05;1.73;;;8.30;55.20;;;6.38;47.25;101239.22;5009052;28;20060;-55
2021/03/23 06:38:30;;;;;;;6.53;1.27;;;7.50;57.50;;;6.22;47.37;101231.59;4990862;28;20439;-54
2021/03/23 06:41:12;;;;;;;4.10;0.73;;;7.10;58.70;;;6.33;47.19;101235.16;5008979;28;20145;-55
2021/03/23 06:43:44;;;;;;;3.28;0.85;;;6.90;59.20;;;6.22;47.47;101240.19;5008831;28;20053;-55
2021/03/23 06:46:26;;;;;;;1.90;0.68;;;6.90;60.00;;;6.28;47.16;101237.22;4991689;28;20456;-56
2021/03/23 06:49:12;;;;;;;5.38;0.93;;;6.90;60.20;;;6.21;47.37;101246.28;4991832;28;20073;-55
2021/03/23 06:52:04;;;;;;;5.57;1.52;;;6.80;60.60;;;6.39;46.98;101240.88;5006172;28;20339;-55
2021/03/23 06:54:39;;;;;;;8.27;1.10;;;6.90;60.50;;;6.22;47.18;101240.19;4989679;28;20132;-57
2021/03/23 06:57:06;;;;;;;2.92;1.35;;;7.00;60.20;;;6.48;47.15;101243.69;4997621;28;20060;-49
2021/03/23 06:59:59;;;;;;;8.57;2.00;;;7.00;60.50;;;6.59;46.39;101245.59;5007544;28;20049;-48
2021/03/23 07:02:38;;;;;;;3.33;1.00;;;7.20;60.10;;;6.79;46.46;101245.09;4989336;28;20064;-56
2021/03/23 07:05:22;;;;;;;3.70;1.00;;;7.30;60.50;;;6.83;46.55;101243.97;5006214;28;20037;-57
2021/03/23 07:07:59;;;;;;;5.20;1.33;;;7.80;59.80;;;6.81;46.36;101245.84;5008406;28;20290;-51
2021/03/23 07:10:32;;;;;;;4.55;1.10;;;7.70;59.50;;;7.13;45.90;101245.44;5008655;28;20576;-54
2021/03/23 07:12:59;;;;;;;6.75;0.90;;;7.80;60.00;;;7.19;45.84;101239.84;4990794;28;20099;-54
2021/03/23 07:15:34;;;;;;;3.65;0.82;;;7.90;60.00;;;7.13;45.63;101248.03;5008403;28;20030;-50
2021/03/23 07:18:06;;;;;;;7.35;1.20;;;7.90;59.60;;;7.11;45.93;101248.13;5006698;28;20552;-53
2021/03/23 07:20:36;;;;;;;5.47;1.20;;;7.80;60.00;;;7.29;45.43;101246.06;5008110;28;20060;-48
2021/03/23 07:23:30;;;;;;;2.60;0.85;;;7.90;60.20;;;7.43;45.32;101243.38;5008389;28;20129;-53
2021/03/23 07:26:12;;;;;;;7.88;2.90;;;8.00;60.30;;;7.53;44.85;101241.81;5008306;28;20057;-55
2021/03/23 07:28:42;;;;;;;1.95;0.60;;;8.10;59.60;;;7.82;44.56;101251.91;4992601;28;20034;-53
2021/03/23 07:31:32;;;;;;;4.30;0.60;;;8.20;59.60;;;7.78;43.94;101247.84;5007475;28;20409;-58
2021/03/23 07:34:31;;;;;;;1.75;0.50;;;8.30;58.30;;;7.96;44.27;101247.41;5007945;28;20389;-58
2021/03/23 07:37:16;;;;;;;4.22;0.70;;;8.50;58.60;;;8.09;44.06;101247.34;4988356;28;20042;-55
2021/03/23 07:39:50;;;;;;;2.35;0.70;;;8.60;58.60;;;8.55;43.15;101244.03;4990707;28;20037;-56
2021/03/23 07:42:28;;;;;;;2.55;0.77;;;8.90;58.70;;;8.76;43.33;101246.84;5007819;28;20046;-58
2021/03/23 07:45:20;;;;;;;5.28;0.82;;;9.20;58.30;;;8.73;43.33;101237.50;5006900;28;20136;-56
2021/03/23 07:48:11;;;;;;;1.95;0.60;;;9.30;57.90;;;9.02;42.88;101234.47;5003166;28;20541;-56
2021/03/23 07:50:43;;;;;;;5.78;0.63;;;9.30;58.50;;;8.93;43.55;101236.00;4973268;28;20041;-55
2021/03/23 07:53:20;;;;;;;2.45;0.80;;;9.40;58.20;;;9.15;43.24;101233.44;5007595;28;20112;-55
2021/03/23 07:55:50;;;;;;;1.60;0.80;;;9.60;58.00;;;9.05;43.67;101223.84;5006381;28;20407;-56
2021/03/23 07:58:59;;;;;;;8.63;1.42;;;9.50;58.20;;;9.42;42.68;101220.09;5005330;28;20461;-56
2021/03/23 08:01:45;;;;;;;3.75;0.88;;;9.80;58.10;;;9.63;42.60;101228.81;5006364;28;20069;-56
2021/03/23 08:04:45;;;;;;;3.92;0.75;;;10.00;57.70;;;9.67;42.68;101231.19;4999089;28;20030;-58
2021/03/23 08:07:23;;;;;;;5.38;0.60;;;10.10;57.80;;;9.24;43.62;101221.50;5011406;28;20038;-55
2021/03/23 08:10:01;;;;;;;3.10;0.50;;;9.90;58.50;;;8.89;44.50;101232.81;4994065;28;20034;-57
2021/03/23 08:13:09;;;;;;;1.35;0.60;;;9.50;59.40;;;8.98;45.74;101229.50;5011551;28;20038;-53
2021/03/23 08:15:47;;;;;;;3.90;0.90;;;9.40;60.40;;;8.91;44.67;101233.53;5008850;28;20072;-56
2021/03/23 08:18:34;;;;;;;2.50;0.70;;;9.30;60.10;;;9.02;44.96;101232.69;5009122;28;20052;-59
2021/03/23 08:21:42;;;;;;;4.70;0.70;;;9.40;60.50;;;9.33;42.23;101231.22;5007312;28;20052;-55
2021/03/23 08:24:37;;;;;;;5.18;0.35;;;9.80;59.30;;;9.29;42.93;101230.63;5011079;28;20033;-58
2021/03/23 08:27:35;;;;;;;3.20;0.60;;;9.70;59.20;;;9.48;42.81;101235.19;4992892;28;20053;-58
2021/03/23 08:30:19;;;;;;;2.47;0.50;;;9.80;58.30;;;9.60;43.07;101236.88;5006200;28;20042;-57
2021/03/23 08:33:02;;;;;;;2.35;1.25;;;10.00;58.60;;;9.79;41.92;101222.41;5010110;28;20046;-57
2021/03/23 08:36:08;;;;;;;1.67;0.43;;;10.20;57.70;;;9.95;41.79;101223.66;4994343;28;20042;-56
2021/03/23 08:39:03;;;;;;;2.38;0.38;;;10.20;57.50;;;10.04;41.51;101229.91;4996643;28;20018;-56
2021/03/23 08:41:56;;;;;;;1.80;0.60;;;10.40;57.10;;;10.35;41.42;101227.50;5011508;28;20129;-57
2021/03/23 08:44:51;;;;;;;2.50;0.60;;;10.70;57.30;;;9.87;41.60;101236.50;5010985;28;20053;-53
2021/03/23 08:48:04;;;;;;;2.83;0.68;;;10.40;56.80;;;10.17;42.21;101233.22;4994983;28;20071;-59
2021/03/23 08:50:40;;;;;;;1.23;0.50;;;10.70;57.30;;;10.38;40.99;101232.47;5008024;28;20425;-54
2021/03/23 08:53:34;;;;;;;4.38;0.50;;;10.80;56.30;;;10.24;40.41;101234.41;4990541;28;20038;-54
2021/03/23 08:56:03;;;;;;;3.75;0.60;;;10.70;55.40;;;10.30;41.14;101239.13;5005829;28;20072;-61
2021/03/23 08:58:55;;;;;;;3.40;1.00;;;10.70;56.00;;;10.38;40.46;101237.69;5009863;28;20026;-57
2021/03/23 09:01:41;;;;;;;3.63;0.50;;;10.80;55.60;;;10.25;40.84;101233.44;5007786;28;20131;-59
2021/03/23 09:04:09;;;;;;;2.33;0.70;;;10.70;56.00;;;10.70;40.67;101230.63;5009408;28;20587;-58
2021/03/23 09:06:59;;;;;;;2.03;0.52;;;10.90;56.40;;;10.43;39.72;101228.50;5010277;28;20045;-59
2021/03/23 09:09:30;;;;;;;5.97;0.70;;;10.90;54.60;;;10.51;40.58;101231.31;5011210;28;20446;-56
2021/03/23 09:12:41;;;;;;;2.38;0.80;;;10.90;55.90;;;10.80;38.64;101228.94;5011193;28;20091;-53
2021/03/23 09:15:26;;;;;;;3.75;0.77;;;11.20;54.90;;;10.82;39.19;101224.41;5009220;28;20046;-60
2021/03/23 09:18:11;;;;;;;2.60;0.65;;;11.30;54.10;;;11.01;39.78;101223.69;5001780;28;20065;-59
2021/03/23 09:20:37;;;;;;;1.52;0.40;;;11.30;55.20;;;10.66;39.65;101224.03;4993444;28;20037;-58
2021/03/23 09:23:19;;;;;;;3.30;0.90;;;11.30;54.20;;;10.96;39.45;101220.63;5010240;28;20073;-56
2021/03/23 09:26:24;;;;;;;4.05;0.73;;;11.40;53.80;;;10.87;39.47;101211.00;5008805;28;20410;-55
2021/03/23 09:28:52;;;;;;;5.40;0.60;;;11.50;53.80;;;10.84;39.83;101217.31;5008630;28;20042;-55
2021/03/23 09:31:29;;;;;;;3.88;0.60;;;11.50;54.00;;;11.05;39.86;101217.25;4993085;28;20042;-58
2021/03/23 09:33:58;;;;;;;2.33;0.50;;;11.60;54.50;;;11.15;39.84;101209.50;5009702;28;20172;-56
2021/03/23 09:36:33;;;;;;;4.65;0.70;;;11.70;54.10;;;11.01;39.63;101217.66;4987017;28;20655;-56
2021/03/23 09:39:31;;;;;;;2.45;0.52;;;11.60;53.60;;;11.30;38.69;101218.63;5006114;28;20033;-57
2021/03/23 09:42:21;;;;;;;2.65;0.50;;;11.90;53.50;;;11.55;38.59;101215.56;4980618;28;20037;-53
2021/03/23 09:45:19;;;;;;;2.13;0.55;;;12.10;53.20;;;11.77;37.71;101221.56;5010713;28;20058;-57
2021/03/23 09:47:59;;;;;;;2.08;0.63;;;12.30;52.50;;;11.81;37.46;101215.94;5010215;28;20524;-55
2021/03/23 09:50:37;;;;;;;1.88;0.40;;;12.40;52.00;;;12.45;37.31;101206.75;4992794;28;20400;-54
2021/03/23 09:53:23;;;;;;;1.73;0.57;;;12.70;52.10;;;12.79;35.50;101199.25;4993536;28;20160;-53
2021/03/23 09:55:50;;;;;;;7.70;0.77;;;13.20;50.60;;;12.82;36.44;101201.59;5010250;28;20038;-58
2021/03/23 09:58:34;;;;;;;7.07;0.90;;;13.20;50.80;;;13.04;35.85;101192.59;5010638;28;20038;-59
2021/03/23 10:01:23;;;;;;;2.75;0.50;;;13.40;50.90;;;13.41;34.79;101196.06;5010499;28;20653;-55
2021/03/23 10:03:52;;;;;;;2.28;0.60;;;13.70;49.90;;;13.93;34.99;101193.69;5011186;28;20084;-57
2021/03/23 10:06:45;;;;;;;2.58;0.88;;;14.10;49.90;;;14.03;32.88;101191.00;5010439;28;20030;-55
2021/03/23 10:09:11;;;;;;;3.30;0.85;;;14.40;48.90;;;13.49;35.20;101187.47;5010507;28;20034;-59
2021/03/23 10:11:43;;;;;;;4.53;1.30;;;14.10;48.80;;;13.26;36.22;101187.03;5009517;28;20038;-52
2021/03/23 10:14:40;;;;;;;3.67;0.82;;;14.00;50.40;;;12.87;37.09;101181.91;4992135;28;20044;-53
2021/03/23 10:17:27;;;;;;;4.03;1.35;;;13.60;51.10;;;12.76;37.16;101170.81;5010047;28;20064;-52
2021/03/23 10:19:59;;;;;;;3.13;1.00;;;13.40;51.40;;;13.17;36.56;101167.81;5010609;28;20057;-60
2021/03/23 10:22:37;;;;;;;2.50;0.82;;;13.50;51.60;;;13.53;35.75;101163.47;5009587;28;20082;-57
2021/03/23 10:25:15;;;;;;;2.95;0.60;;;13.80;51.10;;;13.75;34.91;101162.22;5009671;28;20038;-57
2021/03/23 10:27:41;;;;;;;3.17;0.75;;;14.00;50.00;;;13.35;34.87;101169.63;4993277;28;20037;-58
2021/03/23 10:30:15;;;;;;;3.45;0.63;;;13.80;48.30;;;13.13;34.22;101174.25;4991763;28;20033;-52
2021/03/23 10:32:49;;;;;;;3.53;0.70;;;13.60;48.80;;;13.51;34.13;101177.69;5008722;28;20346;-52
2021/03/23 10:35:39;;;;;;;4.05;0.70;;;13.80;48.10;;;13.86;30.91;101175.13;5008771;28;20129;-52
2021/03/23 10:38:20;;;;;;;2.83;0.80;;;14.10;45.80;;;14.19;31.53;101171.00;5009216;28;20084;-51
2021/03/23 10:40:52;;;;;;;1.95;0.55;;;14.30;45.60;;;14.17;30.89;101172.16;5008767;28;20123;-58
2021/03/23 10:43:41;;;;;;;2.08;0.52;;;14.60;45.50;;;14.09;30.01;101165.03;5009297;28;20381;-56
2021/03/23 10:46:42;;;;;;;3.03;0.55;;;14.70;43.80;;;13.86;31.49;101166.44;5004597;28;20038;-57
2021/03/23 10:49:32;;;;;;;1.20;0.40;;;14.30;45.30;;;14.41;30.96;101155.78;4994016;28;20046;-60
2021/03/23 10:52:29;;;;;;;2.88;0.55;;;14.60;45.00;;;15.06;30.10;101150.97;4990008;28;20061;-55
2021/03/23 10:55:34;;;;;;;2.10;0.50;;;15.20;44.70;;;14.95;28.17;101149.44;4996714;28;20041;-53
2021/03/23 10:58:28;;;;;;;3.90;0.95;;;15.40;41.90;;;15.22;27.61;101149.22;4891880;29;20484;-55